Cabarete, Dominican Republic
Current Conditions -  °F | °C
As of 12:00 PM on Thursday 23 Oct 2014 (Local Time) from MDCY Reporting Station
Few Clouds Few Clouds  
Wind Chill: 31°   Ceiling: Unl
Heat Index: 38°   Visibility: 6mi
Dew Point: 25°   Wind: 12mph
Humidity: 70%   Direction: 140°SE
Pressure: 29.91"   Gusts: NA
Location:  19.57°N, 70.02°W
Report Text: MDCY 231600Z 14010KT 9999 FEW022 31/25 Q1013
Loading
Personal Weather Stations






























Interactive Weather Map
Tropical Storm Tracking
New forecast layout! Learn more

10-Day Weather Forecast

Advertisements
Track Severe Weather on mobile